Time;durP1;ratioP1;P1;durP2;ratioP2;P2;SDS_P1;SDS_P2;PMS_P1;PMS_P2;Temp;Humidity;BMP_temperature;BMP_pressure;BME280_temperature;BME280_humidity;BME280_pressure;Samples;Min_cycle;Max_cycle;Signal;HPM_P1;HPM_P2
2022/05/26 00:02:14;;;;;;;;;;;19.30;75.70;;;;;;6148754;23;19920;-78
2022/05/26 00:04:41;;;;;;;;;;;19.30;75.90;;;;;;6153005;23;19971;-79
2022/05/26 00:07:08;;;;;;;;;;;19.30;76.00;;;;;;6152279;23;19928;-79
2022/05/26 00:09:35;;;;;;;;;;;19.20;75.90;;;;;;6153269;23;19921;-80
2022/05/26 00:12:02;;;;;;;;;;;19.20;76.40;;;;;;6153324;23;19974;-80
2022/05/26 00:14:30;;;;;;;;;;;19.20;76.70;;;;;;6153880;23;19921;-81
2022/05/26 00:16:56;;;;;;;;;;;19.10;76.80;;;;;;6153111;23;19975;-78
2022/05/26 00:19:23;;;;;;;;;;;19.00;76.80;;;;;;6152042;23;19925;-79
2022/05/26 00:21:50;;;;;;;;;;;19.00;77.70;;;;;;6152700;23;19928;-78
2022/05/26 00:24:18;;;;;;;;;;;18.90;78.20;;;;;;6152168;23;19920;-78
2022/05/26 00:26:45;;;;;;;;;;;18.90;78.50;;;;;;6153366;23;19920;-78
2022/05/26 00:29:12;;;;;;;;;;;18.90;79.00;;;;;;6152271;23;20412;-78
2022/05/26 00:31:39;;;;;;;;;;;18.90;79.60;;;;;;6153499;23;20330;-78
2022/05/26 00:34:06;;;;;;;;;;;18.80;79.60;;;;;;6152775;23;19920;-80
2022/05/26 00:36:38;;;;;;;;;;;18.80;80.10;;;;;;6128092;23;19920;-81
2022/05/26 00:39:06;;;;;;;;;;;18.80;80.50;;;;;;6153146;23;19944;-78
2022/05/26 00:41:33;;;;;;;;;;;18.70;80.50;;;;;;6152386;23;20297;-78
2022/05/26 00:44:00;;;;;;;;;;;18.70;80.50;;;;;;6153015;23;19920;-78
2022/05/26 00:46:36;;;;;;;;;;;18.60;80.50;;;;;;6151193;23;19921;-80
2022/05/26 00:49:04;;;;;;;;;;;18.60;80.50;;;;;;6152976;23;19996;-79
2022/05/26 00:51:35;;;;;;;;;;;18.50;80.40;;;;;;6152317;23;20326;-81
2022/05/26 00:54:04;;;;;;;;;;;18.50;80.30;;;;;;6153070;23;20301;-77
2022/05/26 00:56:46;;;;;;;;;;;18.50;80.20;;;;;;6152441;23;19924;-81
2022/05/26 00:59:16;;;;;;;;;;;18.40;80.40;;;;;;6151979;23;19925;-81
2022/05/26 01:01:44;;;;;;;;;;;18.30;81.00;;;;;;6153508;23;19921;-80
2022/05/26 01:04:15;;;;;;;;;;;18.30;81.50;;;;;;6153274;23;20011;-79
2022/05/26 01:06:47;;;;;;;;;;;18.20;82.50;;;;;;6153030;23;20296;-79
2022/05/26 01:09:14;;;;;;;;;;;18.10;82.80;;;;;;6152135;23;19920;-78
2022/05/26 01:11:41;;;;;;;;;;;18.00;82.70;;;;;;6152674;23;20262;-79
2022/05/26 01:14:21;;;;;;;;;;;18.00;82.50;;;;;;6153054;23;19972;-78
2022/05/26 01:16:56;;;;;;;;;;;17.90;83.80;;;;;;6152180;23;19921;-81
2022/05/26 01:19:35;;;;;;;;;;;17.90;83.50;;;;;;6152741;23;19932;-80
2022/05/26 01:22:20;;;;;;;;;;;17.90;83.40;;;;;;6176949;23;20354;-77
2022/05/26 01:25:05;;;;;;;;;;;17.90;83.00;;;;;;6152414;23;20342;-77
2022/05/26 01:27:35;;;;;;;;;;;17.90;82.40;;;;;;6153053;23;19920;-81
2022/05/26 01:30:10;;;;;;;;;;;18.00;81.70;;;;;;6152377;23;19968;-77
2022/05/26 01:32:37;;;;;;;;;;;18.00;81.30;;;;;;6154731;23;19928;-77
2022/05/26 01:35:22;;;;;;;;;;;18.00;81.80;;;;;;6183617;23;19924;-78
2022/05/26 01:37:52;;;;;;;;;;;18.10;80.80;;;;;;6159036;23;19924;-79
2022/05/26 01:40:19;;;;;;;;;;;18.10;80.40;;;;;;6159709;23;19920;-79
2022/05/26 01:43:03;;;;;;;;;;;18.10;80.10;;;;;;6158795;23;20258;-78
2022/05/26 01:45:48;;;;;;;;;;;18.10;79.70;;;;;;6159199;23;19983;-79
2022/05/26 01:48:17;;;;;;;;;;;18.20;79.00;;;;;;6159070;23;19924;-79
2022/05/26 01:50:47;;;;;;;;;;;18.20;78.60;;;;;;6158835;23;20353;-80
2022/05/26 01:53:14;;;;;;;;;;;18.30;78.50;;;;;;6158349;23;20257;-80
2022/05/26 01:55:53;;;;;;;;;;;18.30;78.30;;;;;;6159551;23;19982;-81
2022/05/26 01:58:40;;;;;;;;;;;18.30;78.20;;;;;;6159171;23;19924;-78
2022/05/26 02:01:08;;;;;;;;;;;18.20;78.10;;;;;;6158444;23;20333;-82
2022/05/26 02:03:36;;;;;;;;;;;18.20;78.30;;;;;;6160074;23;19943;-78
2022/05/26 02:06:15;;;;;;;;;;;18.10;79.20;;;;;;6185003;23;19924;-81
2022/05/26 02:08:52;;;;;;;;;;;18.00;79.60;;;;;;6159476;23;20392;-78
2022/05/26 02:11:20;;;;;;;;;;;18.00;80.30;;;;;;6158285;23;19987;-79
2022/05/26 02:13:47;;;;;;;;;;;17.90;80.30;;;;;;6159763;23;19920;-81
2022/05/26 02:16:20;;;;;;;;;;;17.80;80.60;;;;;;6158686;23;19924;-81
2022/05/26 02:18:51;;;;;;;;;;;17.80;81.80;;;;;;6159364;23;19948;-79
2022/05/26 02:21:20;;;;;;;;;;;17.80;81.70;;;;;;6182796;23;19921;-81
2022/05/26 02:24:08;;;;;;;;;;;17.70;81.60;;;;;;6158928;23;19921;-78
2022/05/26 02:26:35;;;;;;;;;;;17.70;81.50;;;;;;6158872;23;19924;-78
2022/05/26 02:31:48;;;;;;;;;;;17.60;81.20;;;;;;6184857;23;20333;-78
2022/05/26 02:34:17;;;;;;;;;;;17.60;81.00;;;;;;6159204;23;19950;-78
2022/05/26 02:36:45;;;;;;;;;;;17.50;81.20;;;;;;6182869;23;19928;-78
2022/05/26 02:39:11;;;;;;;;;;;17.50;81.80;;;;;;6159150;23;19924;-81
2022/05/26 02:41:39;;;;;;;;;;;17.40;81.50;;;;;;6158472;23;19921;-78
2022/05/26 02:44:06;;;;;;;;;;;17.40;81.80;;;;;;6158421;23;19971;-77
2022/05/26 02:46:44;;;;;;;;;;;17.30;81.70;;;;;;6158198;23;20309;-78
2022/05/26 02:49:11;;;;;;;;;;;17.30;82.10;;;;;;6159212;23;19924;-78
2022/05/26 02:52:07;;;;;;;;;;;17.30;82.30;;;;;;6158761;23;19921;-78
2022/05/26 02:54:49;;;;;;;;;;;17.30;82.40;;;;;;6145169;23;19975;-79
2022/05/26 02:57:24;;;;;;;;;;;17.30;83.10;;;;;;6158677;23;19986;-79
2022/05/26 03:00:09;;;;;;;;;;;17.20;83.10;;;;;;6158461;23;19920;-78
2022/05/26 03:02:41;;;;;;;;;;;17.20;82.70;;;;;;6183993;23;19971;-77
2022/05/26 03:05:15;;;;;;;;;;;17.20;82.80;;;;;;6159457;23;20396;-78
2022/05/26 03:07:44;;;;;;;;;;;17.10;83.20;;;;;;6158271;23;19995;-82
2022/05/26 03:10:11;;;;;;;;;;;17.10;83.30;;;;;;6159293;23;19966;-78
2022/05/26 03:12:38;;;;;;;;;;;17.00;82.90;;;;;;6157987;23;19921;-77
2022/05/26 03:15:06;;;;;;;;;;;17.00;82.60;;;;;;6158614;23;19921;-79
2022/05/26 03:17:33;;;;;;;;;;;17.00;82.30;;;;;;6157976;23;19924;-78
2022/05/26 03:19:59;;;;;;;;;;;17.00;82.20;;;;;;6158456;23;19924;-80
2022/05/26 03:22:26;;;;;;;;;;;16.90;82.40;;;;;;6158720;23;19920;-80
2022/05/26 03:24:53;;;;;;;;;;;16.90;82.40;;;;;;6158106;23;20400;-81
2022/05/26 03:27:20;;;;;;;;;;;16.90;82.00;;;;;;6159275;23;19920;-79
2022/05/26 03:29:47;;;;;;;;;;;16.90;81.10;;;;;;6157679;23;19920;-78
2022/05/26 03:32:14;;;;;;;;;;;17.00;80.30;;;;;;6158659;23;19943;-78
2022/05/26 03:42:57;;;;;;;;;;;17.10;78.60;;;;;;6095112;23;19921;-78
2022/05/26 03:45:24;;;;;;;;;;;17.10;78.50;;;;;;6094186;23;19925;-78
2022/05/26 03:47:51;;;;;;;;;;;17.10;78.30;;;;;;6093887;23;19921;-79
2022/05/26 03:50:18;;;;;;;;;;;17.00;78.50;;;;;;6094576;23;19921;-78
2022/05/26 03:52:45;;;;;;;;;;;17.00;78.50;;;;;;6094907;23;19974;-78
2022/05/26 03:55:12;;;;;;;;;;;17.00;78.40;;;;;;6093717;23;19929;-80
2022/05/26 03:57:40;;;;;;;;;;;17.00;77.90;;;;;;6094720;23;19925;-78
2022/05/26 04:00:07;;;;;;;;;;;17.10;76.60;;;;;;6093591;23;19929;-80
2022/05/26 04:02:34;;;;;;;;;;;17.10;76.00;;;;;;6094364;23;19932;-79
2022/05/26 04:05:01;;;;;;;;;;;17.20;75.80;;;;;;6094021;23;19969;-81
2022/05/26 04:07:28;;;;;;;;;;;17.20;75.50;;;;;;6094647;23;19941;-78
2022/05/26 04:09:54;;;;;;;;;;;17.30;74.90;;;;;;6094116;23;19925;-81
2022/05/26 04:12:21;;;;;;;;;;;17.30;74.50;;;;;;6094833;23;19921;-78
2022/05/26 04:14:48;;;;;;;;;;;17.40;73.80;;;;;;6094491;23;19928;-77
2022/05/26 04:17:15;;;;;;;;;;;17.50;73.30;;;;;;6123021;23;19924;-79
2022/05/26 04:19:41;;;;;;;;;;;17.50;72.70;;;;;;6124082;23;19975;-78
2022/05/26 04:22:15;;;;;;;;;;;17.60;72.60;;;;;;6123063;23;19968;-78
2022/05/26 04:24:42;;;;;;;;;;;17.60;73.60;;;;;;6172883;23;20358;-80
2022/05/26 04:27:09;;;;;;;;;;;17.60;72.40;;;;;;6095115;23;19990;-81
2022/05/26 04:29:36;;;;;;;;;;;17.60;72.20;;;;;;6094463;23;20339;-78
2022/05/26 04:32:03;;;;;;;;;;;17.60;72.20;;;;;;6095087;23;20244;-77
2022/05/26 04:34:30;;;;;;;;;;;17.60;72.30;;;;;;6099483;23;19921;-81
2022/05/26 04:36:57;;;;;;;;;;;17.60;72.20;;;;;;6124492;23;19921;-78
2022/05/26 04:39:23;;;;;;;;;;;17.60;72.00;;;;;;6099659;23;20335;-78
2022/05/26 04:41:50;;;;;;;;;;;17.60;72.00;;;;;;6099477;23;19945;-81
2022/05/26 04:44:17;;;;;;;;;;;17.70;71.50;;;;;;6098293;23;19979;-78
2022/05/26 04:46:44;;;;;;;;;;;17.70;71.40;;;;;;6099741;23;19930;-81
2022/05/26 04:49:11;;;;;;;;;;;17.70;71.10;;;;;;6098536;23;20343;-81
2022/05/26 04:51:39;;;;;;;;;;;17.70;70.90;;;;;;6099734;23;19947;-81
2022/05/26 04:54:07;;;;;;;;;;;17.80;70.40;;;;;;6098145;23;19972;-78
2022/05/26 04:56:35;;;;;;;;;;;17.80;70.40;;;;;;6099264;23;19925;-78
2022/05/26 04:59:02;;;;;;;;;;;17.80;70.20;;;;;;6098090;23;20261;-78
2022/05/26 05:01:29;;;;;;;;;;;17.80;70.00;;;;;;6098995;23;20318;-78
2022/05/26 05:03:56;;;;;;;;;;;17.90;70.20;;;;;;6098268;23;19921;-79
2022/05/26 05:06:22;;;;;;;;;;;17.90;70.30;;;;;;6099689;23;20020;-81
2022/05/26 05:08:49;;;;;;;;;;;17.90;69.90;;;;;;6101502;23;19931;-78
2022/05/26 05:11:16;;;;;;;;;;;17.90;69.40;;;;;;6100416;23;19921;-77
2022/05/26 05:13:43;;;;;;;;;;;18.00;69.10;;;;;;6101016;23;19921;-78
2022/05/26 05:16:42;;;;;;;;;;;18.00;68.70;;;;;;6100896;23;20401;-78
2022/05/26 05:19:10;;;;;;;;;;;18.10;68.60;;;;;;6089649;23;19924;-79
2022/05/26 05:21:44;;;;;;;;;;;18.00;68.40;;;;;;6100658;23;19972;-78
2022/05/26 05:24:34;;;;;;;;;;;18.10;68.10;;;;;;6099980;23;19972;-78
2022/05/26 05:27:04;;;;;;;;;;;18.20;67.60;;;;;;6100046;23;19972;-79
2022/05/26 05:29:33;;;;;;;;;;;18.20;67.40;;;;;;6101285;23;19921;-78
2022/05/26 05:32:04;;;;;;;;;;;18.20;67.10;;;;;;6099748;23;19920;-78
2022/05/26 05:34:34;;;;;;;;;;;18.30;66.60;;;;;;6100561;23;19921;-78
2022/05/26 05:37:06;;;;;;;;;;;18.30;66.80;;;;;;6101158;23;20342;-79
2022/05/26 05:39:33;;;;;;;;;;;18.40;66.50;;;;;;6101502;23;19976;-81
2022/05/26 05:42:00;;;;;;;;;;;18.40;66.60;;;;;;6100118;23;19925;-78
2022/05/26 05:44:26;;;;;;;;;;;18.40;66.70;;;;;;6100783;23;19921;-78
2022/05/26 05:46:53;;;;;;;;;;;18.50;66.60;;;;;;6100665;23;20231;-78
2022/05/26 05:49:22;;;;;;;;;;;18.50;66.30;;;;;;6100277;23;19920;-79
2022/05/26 05:51:56;;;;;;;;;;;18.50;66.40;;;;;;6101663;23;19925;-80
2022/05/26 05:54:23;;;;;;;;;;;18.60;66.60;;;;;;6100379;23;19971;-81
2022/05/26 05:56:50;;;;;;;;;;;18.60;66.90;;;;;;6100594;23;19929;-81
2022/05/26 05:59:16;;;;;;;;;;;18.60;66.00;;;;;;6099557;23;19921;-78
2022/05/26 06:01:43;;;;;;;;;;;18.70;65.90;;;;;;6100418;23;19976;-77
2022/05/26 06:04:10;;;;;;;;;;;18.70;65.10;;;;;;6099923;23;19948;-81
2022/05/26 06:06:38;;;;;;;;;;;18.80;65.10;;;;;;6126454;23;19921;-79
2022/05/26 06:09:05;;;;;;;;;;;18.90;64.20;;;;;;6099768;23;19948;-77
2022/05/26 06:11:32;;;;;;;;;;;18.90;63.40;;;;;;6100732;23;20338;-77
2022/05/26 06:14:01;;;;;;;;;;;19.00;63.10;;;;;;6099614;23;20405;-78
2022/05/26 06:16:30;;;;;;;;;;;19.10;62.50;;;;;;6100727;23;19925;-78
2022/05/26 06:18:57;;;;;;;;;;;19.20;62.40;;;;;;6100617;23;19955;-78
2022/05/26 06:21:24;;;;;;;;;;;19.30;62.10;;;;;;6099248;23;20346;-79
2022/05/26 06:23:51;;;;;;;;;;;19.40;62.70;;;;;;6100116;23;20235;-79
2022/05/26 06:26:18;;;;;;;;;;;19.40;62.40;;;;;;6099551;23;19921;-77
2022/05/26 06:31:30;;;;;;;;;;;19.60;62.70;;;;;;6154236;23;20285;-78
2022/05/26 06:37:13;;;;;;;;;;;19.70;62.20;;;;;;6143159;23;19947;-81
2022/05/26 06:39:30;;;;;;;;;;;19.80;61.60;;;;;;6154350;23;19924;-77
2022/05/26 06:42:06;;;;;;;;;;;19.90;61.40;;;;;;6154214;23;19921;-78
2022/05/26 06:44:34;;;;;;;;;;;20.10;59.80;;;;;;6152481;23;19924;-76
2022/05/26 06:47:01;;;;;;;;;;;20.20;59.50;;;;;;6153632;23;19920;-78
2022/05/26 06:49:27;;;;;;;;;;;20.20;59.00;;;;;;6153022;23;19971;-78
2022/05/26 06:51:54;;;;;;;;;;;20.30;60.00;;;;;;6134605;23;20270;-77
2022/05/26 06:54:21;;;;;;;;;;;20.40;60.60;;;;;;6149124;23;19921;-76
2022/05/26 06:56:48;;;;;;;;;;;20.60;59.20;;;;;;6153829;23;19956;-76
2022/05/26 06:59:15;;;;;;;;;;;20.70;58.80;;;;;;6154162;23;19928;-81
2022/05/26 07:01:41;;;;;;;;;;;20.80;59.00;;;;;;6153350;23;19951;-81
2022/05/26 07:04:08;;;;;;;;;;;20.90;58.30;;;;;;6154973;23;19987;-77
2022/05/26 07:06:35;;;;;;;;;;;21.00;57.60;;;;;;6153142;23;19920;-81
2022/05/26 07:09:02;;;;;;;;;;;21.10;57.50;;;;;;6153577;23;20346;-77
2022/05/26 07:11:30;;;;;;;;;;;21.20;58.00;;;;;;6153387;23;19920;-81
2022/05/26 07:13:57;;;;;;;;;;;21.30;57.80;;;;;;6153863;23;19931;-78
2022/05/26 07:16:24;;;;;;;;;;;21.30;58.10;;;;;;6153944;23;19924;-79
2022/05/26 07:18:53;;;;;;;;;;;21.40;58.10;;;;;;6153634;23;19948;-79
2022/05/26 07:21:20;;;;;;;;;;;21.60;58.90;;;;;;6153250;23;19999;-81
2022/05/26 07:23:47;;;;;;;;;;;21.80;59.90;;;;;;6177534;23;20352;-81
2022/05/26 07:26:14;;;;;;;;;;;22.00;59.70;;;;;;6153914;23;19928;-77
2022/05/26 07:28:41;;;;;;;;;;;22.20;59.30;;;;;;6152366;23;19951;-79
2022/05/26 07:31:09;;;;;;;;;;;22.40;57.80;;;;;;6154917;23;20264;-77
2022/05/26 07:33:36;;;;;;;;;;;22.50;57.60;;;;;;6152228;23;19921;-78
2022/05/26 07:36:03;;;;;;;;;;;22.70;58.30;;;;;;6153762;23;19927;-79
2022/05/26 07:41:23;;;;;;;;;;;23.00;58.70;;;;;;6154919;23;19920;-82
2022/05/26 07:43:54;;;;;;;;;;;23.10;59.60;;;;;;6152809;23;19921;-79
2022/05/26 07:46:22;;;;;;;;;;;23.30;60.20;;;;;;6154509;23;19920;-79
2022/05/26 07:48:50;;;;;;;;;;;23.40;60.00;;;;;;6152230;23;19925;-78
2022/05/26 07:51:19;;;;;;;;;;;23.60;60.20;;;;;;6153591;23;19924;-81
2022/05/26 07:53:46;;;;;;;;;;;23.70;59.30;;;;;;6152419;23;19928;-78
2022/05/26 07:56:13;;;;;;;;;;;23.80;58.90;;;;;;6154942;23;19924;-79
2022/05/26 07:58:40;;;;;;;;;;;23.90;59.00;;;;;;6152117;23;20403;-79
2022/05/26 08:01:07;;;;;;;;;;;24.10;59.00;;;;;;6153189;23;19925;-78
2022/05/26 08:03:34;;;;;;;;;;;24.20;58.80;;;;;;6152190;23;19924;-79
2022/05/26 08:06:01;;;;;;;;;;;24.10;57.60;;;;;;6152845;23;19967;-78
2022/05/26 08:08:31;;;;;;;;;;;24.10;57.70;;;;;;6152391;23;19928;-79
2022/05/26 08:10:58;;;;;;;;;;;24.20;57.50;;;;;;6153048;23;19921;-78
2022/05/26 08:13:25;;;;;;;;;;;24.40;58.00;;;;;;6154700;23;19927;-78
2022/05/26 08:15:52;;;;;;;;;;;24.50;58.10;;;;;;6152208;23;19924;-79
2022/05/26 08:18:19;;;;;;;;;;;24.60;57.30;;;;;;6154562;23;19952;-81
2022/05/26 08:20:46;;;;;;;;;;;24.70;56.30;;;;;;6152711;23;20338;-78
2022/05/26 08:23:22;;;;;;;;;;;24.90;57.40;;;;;;6154378;23;19996;-78
2022/05/26 08:25:49;;;;;;;;;;;25.00;56.80;;;;;;6152084;23;19924;-77
2022/05/26 08:28:16;;;;;;;;;;;25.10;56.30;;;;;;6152971;23;19920;-79
2022/05/26 08:30:42;;;;;;;;;;;25.20;56.20;;;;;;6152050;23;20305;-79
2022/05/26 08:33:09;;;;;;;;;;;25.30;55.10;;;;;;6161187;23;19944;-78
2022/05/26 08:35:36;;;;;;;;;;;25.30;55.10;;;;;;6181888;23;20341;-79
2022/05/26 08:38:02;;;;;;;;;;;25.10;55.30;;;;;;6158510;23;19925;-78
2022/05/26 08:40:34;;;;;;;;;;;25.10;57.30;;;;;;6157153;23;19996;-79
2022/05/26 08:43:02;;;;;;;;;;;25.10;55.80;;;;;;6159579;23;19982;-78
2022/05/26 08:45:30;;;;;;;;;;;25.00;57.00;;;;;;6159779;23;19999;-82
2022/05/26 08:47:57;;;;;;;;;;;25.00;57.40;;;;;;6185875;23;19952;-82
2022/05/26 08:50:29;;;;;;;;;;;25.00;57.70;;;;;;6184784;23;20293;-78
2022/05/26 08:52:56;;;;;;;;;;;25.10;56.40;;;;;;6158987;23;20002;-79
2022/05/26 08:55:29;;;;;;;;;;;25.10;56.60;;;;;;6160185;23;19924;-78
2022/05/26 08:58:00;;;;;;;;;;;25.10;57.70;;;;;;6159217;23;20303;-80
2022/05/26 09:00:27;;;;;;;;;;;25.20;56.80;;;;;;6185413;23;19926;-79
2022/05/26 09:02:55;;;;;;;;;;;25.20;58.50;;;;;;6183498;23;20300;-82
2022/05/26 09:05:22;;;;;;;;;;;25.30;57.40;;;;;;6184334;23;19924;-79
2022/05/26 09:13:55;;;;;;;;;;;25.90;56.50;;;;;;6184519;23;19920;-77
2022/05/26 09:16:22;;;;;;;;;;;26.00;55.60;;;;;;6159700;23;19924;-78
2022/05/26 09:19:07;;;;;;;;;;;26.10;55.60;;;;;;6183556;23;20555;-79
2022/05/26 09:21:34;;;;;;;;;;;26.20;55.30;;;;;;6159282;23;19928;-81
2022/05/26 09:24:25;;;;;;;;;;;26.40;55.70;;;;;;6159626;23;20337;-78
2022/05/26 09:27:00;;;;;;;;;;;26.60;54.60;;;;;;6159246;23;19920;-78
2022/05/26 09:29:32;;;;;;;;;;;26.70;53.80;;;;;;6159995;23;19975;-78
2022/05/26 09:32:00;;;;;;;;;;;26.90;52.70;;;;;;6158880;23;19924;-79
2022/05/26 09:35:14;;;;;;;;;;;27.00;53.10;;;;;;6153577;23;19979;-78
2022/05/26 09:37:42;;;;;;;;;;;27.10;53.40;;;;;;6153693;23;19971;-78
2022/05/26 09:40:12;;;;;;;;;;;27.30;51.50;;;;;;6154369;23;19921;-82
2022/05/26 09:42:43;;;;;;;;;;;27.30;52.60;;;;;;6153688;23;19931;-79
2022/05/26 09:45:13;;;;;;;;;;;27.30;52.90;;;;;;6154292;23;19962;-80
2022/05/26 09:47:45;;;;;;;;;;;27.30;53.10;;;;;;6152488;23;19924;-83
2022/05/26 09:50:30;;;;;;;;;;;27.30;51.90;;;;;;6154243;23;19928;-79
2022/05/26 09:52:57;;;;;;;;;;;27.30;53.00;;;;;;6153342;23;19921;-79
2022/05/26 09:55:27;;;;;;;;;;;27.40;51.70;;;;;;6154224;23;19925;-79
2022/05/26 09:58:05;;;;;;;;;;;27.40;50.40;;;;;;6153761;23;19924;-78
2022/05/26 10:00:31;;;;;;;;;;;27.30;51.60;;;;;;6153983;23;19920;-79
2022/05/26 10:02:59;;;;;;;;;;;27.40;52.40;;;;;;6153099;23;19975;-79
2022/05/26 10:05:37;;;;;;;;;;;27.40;52.60;;;;;;6154288;23;19921;-82
2022/05/26 10:08:09;;;;;;;;;;;27.40;51.40;;;;;;6153701;23;20425;-78
2022/05/26 10:10:59;;;;;;;;;;;27.50;51.80;;;;;;6154273;23;19921;-82
2022/05/26 10:13:31;;;;;;;;;;;27.30;51.00;;;;;;6173456;23;19921;-82
2022/05/26 10:16:04;;;;;;;;;;;27.20;51.40;;;;;;6125968;23;19980;-78
2022/05/26 10:18:37;;;;;;;;;;;27.20;51.40;;;;;;6123707;23;19921;-79
2022/05/26 10:21:39;;;;;;;;;;;27.40;51.80;;;;;;6124522;23;19972;-78
2022/05/26 10:24:06;;;;;;;;;;;27.60;52.20;;;;;;6093705;23;19972;-83
2022/05/26 10:26:33;;;;;;;;;;;27.80;51.20;;;;;;6123749;23;19931;-83
2022/05/26 10:29:19;;;;;;;;;;;28.00;51.20;;;;;;6154864;23;19925;-79
2022/05/26 10:32:04;;;;;;;;;;;28.20;49.70;;;;;;6153379;23;19921;-79
2022/05/26 10:34:43;;;;;;;;;;;28.40;49.40;;;;;;6153958;23;20392;-78
2022/05/26 10:37:35;;;;;;;;;;;28.50;48.10;;;;;;6153202;23;19920;-79
2022/05/26 10:40:07;;;;;;;;;;;28.50;47.20;;;;;;6125545;23;19967;-80
2022/05/26 10:42:54;;;;;;;;;;;28.50;47.10;;;;;;6124420;23;19971;-78
2022/05/26 10:45:30;;;;;;;;;;;28.60;46.70;;;;;;6152978;23;19921;-80
2022/05/26 10:48:05;;;;;;;;;;;28.50;46.90;;;;;;6153170;23;19920;-82
2022/05/26 10:50:31;;;;;;;;;;;28.40;46.40;;;;;;6153639;23;19921;-80
2022/05/26 10:53:05;;;;;;;;;;;28.30;48.10;;;;;;6153278;23;19971;-78
2022/05/26 10:55:38;;;;;;;;;;;28.40;48.30;;;;;;6153506;23;19952;-78
2022/05/26 10:58:04;;;;;;;;;;;28.40;46.70;;;;;;6154147;23;19928;-80
2022/05/26 11:00:33;;;;;;;;;;;28.40;47.70;;;;;;6153975;23;19971;-79
2022/05/26 11:03:13;;;;;;;;;;;28.40;47.20;;;;;;6153190;23;19929;-80
2022/05/26 11:05:43;;;;;;;;;;;28.40;46.60;;;;;;6153044;23;19921;-83
2022/05/26 11:08:26;;;;;;;;;;;28.50;46.70;;;;;;6152862;23;19921;-83
2022/05/26 11:11:00;;;;;;;;;;;28.60;46.40;;;;;;6153877;23;19921;-80
2022/05/26 11:13:45;;;;;;;;;;;28.70;47.50;;;;;;6154720;23;19920;-77
2022/05/26 11:19:24;;;;;;;;;;;28.80;46.20;;;;;;6154718;23;19948;-80
2022/05/26 11:21:51;;;;;;;;;;;28.90;44.80;;;;;;6153518;23;19975;-78
2022/05/26 11:24:19;;;;;;;;;;;28.90;44.80;;;;;;6154758;23;19921;-80
2022/05/26 11:26:49;;;;;;;;;;;28.90;45.40;;;;;;6153269;23;19921;-80
2022/05/26 11:29:22;;;;;;;;;;;29.10;46.20;;;;;;6152614;23;19921;-79
2022/05/26 11:37:28;;;;;;;;;;;29.30;46.10;;;;;;6183909;23;19963;-81
2022/05/26 11:39:59;;;;;;;;;;;29.40;45.30;;;;;;6184357;23;19979;-80
2022/05/26 11:42:32;;;;;;;;;;;29.60;45.70;;;;;;6157668;23;19943;-78
2022/05/26 11:45:07;;;;;;;;;;;29.70;43.70;;;;;;6158833;23;20292;-80
2022/05/26 11:47:56;;;;;;;;;;;29.70;43.20;;;;;;6157781;23;19928;-79
2022/05/26 11:50:43;;;;;;;;;;;29.60;42.60;;;;;;6162081;23;19940;-83
2022/05/26 11:53:12;;;;;;;;;;;29.50;44.20;;;;;;6158038;23;20346;-79
2022/05/26 11:55:45;;;;;;;;;;;29.50;44.10;;;;;;6157733;23;20412;-78
2022/05/26 11:58:17;;;;;;;;;;;29.50;42.70;;;;;;6158507;23;19921;-83
2022/05/26 12:00:46;;;;;;;;;;;29.50;44.20;;;;;;6157917;23;19928;-78
2022/05/26 12:03:22;;;;;;;;;;;29.50;43.50;;;;;;6158912;23;20401;-80
2022/05/26 12:06:10;;;;;;;;;;;29.70;42.80;;;;;;6183689;23;19927;-80
2022/05/26 12:08:39;;;;;;;;;;;29.70;42.00;;;;;;6157579;23;19921;-79
2022/05/26 12:11:09;;;;;;;;;;;29.80;41.80;;;;;;6184387;23;19967;-79
2022/05/26 12:13:39;;;;;;;;;;;29.90;42.20;;;;;;6157634;23;19920;-78
2022/05/26 12:16:17;;;;;;;;;;;30.10;41.00;;;;;;6158412;23;19942;-78
2022/05/26 12:18:46;;;;;;;;;;;30.10;41.70;;;;;;6157260;23;19999;-83
2022/05/26 12:21:33;;;;;;;;;;;30.30;41.40;;;;;;6158050;23;19920;-79
2022/05/26 12:24:22;;;;;;;;;;;30.40;40.70;;;;;;6158392;23;20337;-79
2022/05/26 12:26:49;;;;;;;;;;;30.60;40.90;;;;;;6157062;23;19925;-79
2022/05/26 12:29:35;;;;;;;;;;;30.60;39.70;;;;;;6157809;23;19920;-79
2022/05/26 12:32:19;;;;;;;;;;;30.70;39.70;;;;;;6183582;23;19920;-78
2022/05/26 12:35:04;;;;;;;;;;;30.90;39.60;;;;;;6156628;23;19920;-83
2022/05/26 12:37:34;;;;;;;;;;;31.00;38.80;;;;;;6158581;23;19920;-81
2022/05/26 12:40:07;;;;;;;;;;;31.10;38.40;;;;;;6157200;23;19920;-79
2022/05/26 12:42:43;;;;;;;;;;;31.10;38.60;;;;;;6158156;23;19928;-83
2022/05/26 12:45:15;;;;;;;;;;;31.10;38.60;;;;;;6157274;23;19924;-84
2022/05/26 12:47:46;;;;;;;;;;;31.20;39.00;;;;;;6158192;23;20400;-84
2022/05/26 12:50:16;;;;;;;;;;;31.20;38.00;;;;;;6157041;23;19928;-79
2022/05/26 12:52:47;;;;;;;;;;;31.20;37.40;;;;;;6157995;23;20412;-83
2022/05/26 12:55:20;;;;;;;;;;;31.30;38.00;;;;;;6157825;23;19948;-79
2022/05/26 12:57:59;;;;;;;;;;;31.30;38.60;;;;;;6157996;23;19920;-79
2022/05/26 13:00:26;;;;;;;;;;;31.30;38.60;;;;;;6157149;23;19920;-84
2022/05/26 13:02:58;;;;;;;;;;;31.40;39.10;;;;;;6157994;23;19920;-79
2022/05/26 13:05:25;;;;;;;;;;;31.40;37.90;;;;;;6157445;23;20379;-79
2022/05/26 13:07:54;;;;;;;;;;;31.40;38.10;;;;;;6158363;23;19927;-79
2022/05/26 13:10:23;;;;;;;;;;;31.40;39.70;;;;;;6182023;23;19920;-83
2022/05/26 13:12:50;;;;;;;;;;;31.60;37.30;;;;;;6183009;23;20261;-83
2022/05/26 13:15:25;;;;;;;;;;;31.50;36.80;;;;;;6157586;23;19920;-79
2022/05/26 13:17:52;;;;;;;;;;;31.50;36.80;;;;;;6157984;23;19970;-83
2022/05/26 13:20:28;;;;;;;;;;;31.40;37.50;;;;;;6156929;23;19983;-83
2022/05/26 13:23:30;;;;;;;;;;;31.40;37.30;;;;;;6160916;23;19999;-80
2022/05/26 13:25:58;;;;;;;;;;;31.30;36.70;;;;;;6157693;23;20289;-78
2022/05/26 13:28:27;;;;;;;;;;;31.30;37.50;;;;;;6184389;23;19927;-80
2022/05/26 13:34:01;;;;;;;;;;;31.40;37.80;;;;;;6185494;23;19928;-79
2022/05/26 13:36:33;;;;;;;;;;;31.50;37.50;;;;;;6183513;23;19987;-78
2022/05/26 13:39:04;;;;;;;;;;;31.70;36.40;;;;;;6184773;23;19924;-80
2022/05/26 13:41:39;;;;;;;;;;;31.70;38.00;;;;;;6160524;23;19971;-80
2022/05/26 13:44:08;;;;;;;;;;;31.60;36.70;;;;;;6159676;23;19947;-78
2022/05/26 13:46:40;;;;;;;;;;;31.50;36.80;;;;;;6158865;23;19920;-80
2022/05/26 13:49:16;;;;;;;;;;;31.50;37.10;;;;;;6160008;23;20361;-79
2022/05/26 13:51:47;;;;;;;;;;;31.40;36.80;;;;;;6158951;23;19971;-82
2022/05/26 13:54:17;;;;;;;;;;;31.50;37.70;;;;;;6159895;23;20308;-79
2022/05/26 13:56:45;;;;;;;;;;;31.70;39.20;;;;;;6159485;23;19920;-80
2022/05/26 13:59:13;;;;;;;;;;;31.80;38.90;;;;;;6159775;23;19921;-78
2022/05/26 14:01:53;;;;;;;;;;;32.00;35.40;;;;;;6158759;23;19924;-79
2022/05/26 14:04:23;;;;;;;;;;;32.20;35.80;;;;;;6158690;23;19996;-79
2022/05/26 14:06:51;;;;;;;;;;;32.30;35.80;;;;;;6185483;23;19951;-80
2022/05/26 14:09:29;;;;;;;;;;;32.30;35.80;;;;;;6159540;23;19967;-83
2022/05/26 14:12:03;;;;;;;;;;;32.30;35.70;;;;;;6158971;23;19920;-83
2022/05/26 14:14:38;;;;;;;;;;;32.20;36.10;;;;;;6159276;23;19928;-79
2022/05/26 14:17:06;;;;;;;;;;;32.20;35.70;;;;;;6158052;23;19924;-79
2022/05/26 14:19:34;;;;;;;;;;;32.30;35.40;;;;;;6185613;23;20341;-80
2022/05/26 14:22:02;;;;;;;;;;;32.30;36.00;;;;;;6158896;23;19927;-78
2022/05/26 14:24:34;;;;;;;;;;;32.30;35.20;;;;;;6185368;23;19931;-78
2022/05/26 14:27:04;;;;;;;;;;;32.30;35.00;;;;;;6158045;23;19932;-83
2022/05/26 14:29:32;;;;;;;;;;;32.30;35.20;;;;;;6158872;23;20265;-83
2022/05/26 14:32:17;;;;;;;;;;;32.20;35.00;;;;;;6158533;23;19987;-80
2022/05/26 14:34:46;;;;;;;;;;;32.20;35.00;;;;;;6183964;23;20314;-81
2022/05/26 14:37:14;;;;;;;;;;;32.20;35.40;;;;;;6159198;23;19955;-84
2022/05/26 14:39:41;;;;;;;;;;;32.40;35.00;;;;;;6158676;23;19925;-84
2022/05/26 14:42:12;;;;;;;;;;;32.50;34.90;;;;;;6158874;23;19924;-78
2022/05/26 14:44:40;;;;;;;;;;;32.70;34.90;;;;;;6158705;23;19924;-78
2022/05/26 14:47:06;;;;;;;;;;;32.80;35.00;;;;;;6158151;23;19927;-79
2022/05/26 14:49:34;;;;;;;;;;;32.80;34.70;;;;;;6158667;23;19924;-80
2022/05/26 14:52:02;;;;;;;;;;;32.80;35.40;;;;;;6158164;23;20009;-78
2022/05/26 14:57:16;;;;;;;;;;;32.90;34.60;;;;;;6184243;23;19927;-79
2022/05/26 14:59:43;;;;;;;;;;;32.80;34.60;;;;;;6159032;23;19928;-84
2022/05/26 15:02:10;;;;;;;;;;;32.70;34.10;;;;;;6184041;23;19979;-79
2022/05/26 15:04:37;;;;;;;;;;;32.50;34.10;;;;;;6183632;23;19954;-79
2022/05/26 15:07:04;;;;;;;;;;;32.50;34.40;;;;;;6157890;23;20253;-78
2022/05/26 15:09:31;;;;;;;;;;;32.20;34.60;;;;;;6159084;23;19927;-80
2022/05/26 15:11:59;;;;;;;;;;;32.20;35.00;;;;;;6158234;23;19971;-78
2022/05/26 15:14:27;;;;;;;;;;;32.10;34.70;;;;;;6158907;23;19944;-80
2022/05/26 15:16:56;;;;;;;;;;;31.90;35.20;;;;;;6158217;23;19920;-80
2022/05/26 15:19:24;;;;;;;;;;;31.60;35.40;;;;;;6158596;23;19924;-79